createdAt,value
2023-01-15T00:00:22.889Z,9.49
2023-01-15T00:02:56.296Z,9.51
2023-01-15T00:05:26.300Z,9.53
2023-01-15T00:07:56.437Z,9.53
2023-01-15T00:10:30.225Z,9.54
2023-01-15T00:13:02.599Z,9.57
2023-01-15T00:15:34.907Z,9.58
2023-01-15T00:18:03.747Z,9.59
2023-01-15T00:20:33.371Z,9.60
2023-01-15T00:23:01.989Z,9.60
2023-01-15T00:25:48.531Z,9.62
2023-01-15T00:28:22.769Z,9.64
2023-01-15T00:30:54.456Z,9.66
2023-01-15T00:33:26.716Z,9.67
2023-01-15T00:36:00.028Z,9.70
2023-01-15T00:38:29.396Z,9.70
2023-01-15T00:40:59.519Z,9.72
2023-01-15T00:43:31.355Z,9.72
2023-01-15T00:46:11.520Z,9.74
2023-01-15T00:48:40.829Z,9.76
2023-01-15T00:51:10.322Z,9.77
2023-01-15T00:53:39.835Z,9.78
2023-01-15T00:56:09.410Z,9.77
2023-01-15T00:58:40.856Z,9.77
2023-01-15T01:01:12.318Z,9.78
2023-01-15T01:03:41.304Z,9.79
2023-01-15T01:06:11.369Z,9.78
2023-01-15T01:08:41.862Z,9.78
2023-01-15T01:11:12.759Z,9.78
2023-01-15T01:13:43.634Z,9.79
2023-01-15T01:16:33.751Z,9.81
2023-01-15T01:19:03.833Z,9.82
2023-01-15T01:21:32.769Z,9.82
2023-01-15T01:24:01.615Z,9.85
2023-01-15T01:26:30.256Z,9.85
2023-01-15T01:29:00.814Z,9.86
2023-01-15T01:31:34.183Z,9.87
2023-01-15T01:34:04.127Z,9.88
2023-01-15T01:36:36.279Z,9.88
2023-01-15T01:39:06.737Z,9.88
2023-01-15T01:41:39.905Z,9.89
2023-01-15T01:44:33.863Z,9.91
2023-01-15T01:47:03.420Z,9.93
2023-01-15T01:49:32.263Z,9.93
2023-01-15T01:52:03.868Z,9.94
2023-01-15T01:54:33.883Z,9.95
2023-01-15T01:57:02.103Z,9.97
2023-01-15T01:59:39.762Z,9.98
2023-01-15T02:02:09.023Z,10.00
2023-01-15T02:04:38.535Z,10.02
2023-01-15T02:07:15.606Z,10.03
2023-01-15T02:09:45.650Z,10.06
2023-01-15T02:12:19.320Z,10.07
2023-01-15T02:14:53.698Z,10.09
2023-01-15T02:17:27.834Z,10.11
2023-01-15T02:20:05.152Z,10.13
2023-01-15T02:22:46.758Z,10.15
2023-01-15T02:25:21.491Z,10.15
2023-01-15T02:27:57.819Z,10.15
2023-01-15T02:30:31.532Z,10.14
2023-01-15T02:33:06.845Z,10.15
2023-01-15T02:35:39.425Z,10.13
2023-01-15T02:38:15.113Z,10.12
2023-01-15T02:40:47.932Z,10.12
2023-01-15T02:43:36.045Z,10.12
2023-01-15T02:46:08.561Z,10.11
2023-01-15T02:48:39.759Z,10.10
2023-01-15T02:51:11.531Z,10.11
2023-01-15T02:53:47.580Z,10.09
2023-01-15T02:56:19.072Z,10.09
2023-01-15T02:58:55.793Z,10.08
2023-01-15T03:01:34.850Z,10.06
2023-01-15T03:04:10.174Z,10.07
2023-01-15T03:06:40.902Z,10.06
2023-01-15T03:09:10.973Z,10.04
2023-01-15T03:11:44.824Z,10.04
2023-01-15T03:14:18.459Z,10.04
2023-01-15T03:16:53.031Z,10.03
2023-01-15T03:19:25.982Z,10.03
2023-01-15T03:22:00.114Z,10.03
2023-01-15T03:24:34.999Z,10.04
2023-01-15T03:27:05.635Z,10.03
2023-01-15T03:29:39.121Z,10.02
2023-01-15T03:32:11.596Z,10.01
2023-01-15T03:34:48.317Z,10.00
2023-01-15T03:37:21.501Z,9.99
2023-01-15T03:39:51.410Z,9.99
2023-01-15T03:42:32.043Z,9.98
2023-01-15T03:45:05.553Z,9.97
2023-01-15T03:47:44.441Z,9.97
2023-01-15T03:50:17.383Z,9.96
2023-01-15T03:52:50.957Z,9.98
2023-01-15T03:55:24.451Z,9.96
2023-01-15T03:58:04.703Z,9.97
2023-01-15T04:00:39.798Z,9.96
2023-01-15T04:03:20.667Z,9.95
2023-01-15T04:05:49.843Z,9.94
2023-01-15T04:08:20.398Z,9.93
2023-01-15T04:10:55.608Z,9.90
2023-01-15T04:13:28.211Z,9.89
2023-01-15T04:16:01.275Z,9.88
2023-01-15T04:18:31.317Z,9.86
2023-01-15T04:21:01.175Z,9.84
2023-01-15T04:23:30.632Z,9.83
2023-01-15T04:26:00.591Z,9.82
2023-01-15T04:28:32.013Z,9.81
2023-01-15T04:31:02.130Z,9.81
2023-01-15T04:33:32.054Z,9.81
2023-01-15T04:36:01.262Z,9.80
2023-01-15T04:38:30.618Z,9.78
2023-01-15T04:41:22.783Z,9.77
2023-01-15T04:44:09.744Z,9.71
2023-01-15T04:46:39.077Z,9.59
2023-01-15T04:49:14.389Z,9.43
2023-01-15T04:51:42.260Z,9.22
2023-01-15T04:54:17.276Z,8.96
2023-01-15T04:56:58.939Z,8.67
2023-01-15T04:59:27.651Z,8.39
2023-01-15T05:02:05.011Z,8.15
2023-01-15T05:04:38.028Z,7.89
2023-01-15T05:07:07.448Z,7.66
2023-01-15T05:09:38.205Z,7.45
2023-01-15T05:12:11.339Z,7.22
2023-01-15T05:14:40.708Z,7.03
2023-01-15T05:17:09.793Z,6.86
2023-01-15T05:19:39.793Z,6.70
2023-01-15T05:22:10.038Z,6.57
2023-01-15T05:24:42.040Z,6.46
2023-01-15T05:27:12.691Z,6.35
2023-01-15T05:29:41.844Z,6.27
2023-01-15T05:32:12.598Z,6.19
2023-01-15T05:34:44.928Z,6.13
2023-01-15T05:37:18.265Z,6.09
2023-01-15T05:39:48.083Z,6.06
2023-01-15T05:42:19.723Z,6.04
2023-01-15T05:44:49.257Z,6.04
2023-01-15T05:47:18.581Z,6.02
2023-01-15T05:49:50.623Z,6.02
2023-01-15T05:52:25.766Z,6.03
2023-01-15T05:54:54.382Z,6.03
2023-01-15T05:57:27.388Z,6.02
2023-01-15T05:59:56.654Z,6.01
2023-01-15T06:02:25.666Z,6.01
2023-01-15T06:04:56.347Z,6.01
2023-01-15T06:07:25.088Z,6.02
2023-01-15T06:09:53.845Z,6.03
2023-01-15T06:12:24.673Z,6.03
2023-01-15T06:14:53.645Z,6.05
2023-01-15T06:17:22.824Z,6.08
2023-01-15T06:20:01.210Z,6.10
2023-01-15T06:22:31.447Z,6.13
2023-01-15T06:25:01.086Z,6.15
2023-01-15T06:27:32.427Z,6.16
2023-01-15T06:30:01.181Z,6.19
2023-01-15T06:32:31.417Z,6.21
2023-01-15T06:35:01.852Z,6.25
2023-01-15T06:37:31.382Z,6.28
2023-01-15T06:40:01.259Z,6.31
2023-01-15T06:42:46.892Z,6.35
2023-01-15T06:45:33.296Z,6.39
2023-01-15T06:48:03.045Z,6.42
2023-01-15T06:50:35.553Z,6.46
2023-01-15T06:53:06.523Z,6.50
2023-01-15T06:55:37.394Z,6.54
2023-01-15T06:58:06.088Z,6.56
2023-01-15T07:00:35.416Z,6.60
2023-01-15T07:03:08.667Z,6.63
2023-01-15T07:05:41.460Z,6.67
2023-01-15T07:08:10.283Z,6.70
2023-01-15T07:10:39.345Z,6.73
2023-01-15T07:13:08.167Z,6.75
2023-01-15T07:15:52.004Z,6.76
2023-01-15T07:18:22.145Z,6.79
2023-01-15T07:20:56.640Z,6.80
2023-01-15T07:23:26.680Z,6.82
2023-01-15T07:25:56.190Z,6.83
2023-01-15T07:28:25.981Z,6.84
2023-01-15T07:30:54.844Z,6.85
2023-01-15T07:33:24.286Z,6.86
2023-01-15T07:35:59.613Z,6.86
2023-01-15T07:38:29.680Z,6.87
2023-01-15T07:41:12.903Z,6.88
2023-01-15T07:43:58.381Z,6.89
2023-01-15T07:46:44.045Z,6.91
2023-01-15T07:49:30.851Z,6.93
2023-01-15T07:52:01.892Z,6.94
2023-01-15T07:54:30.366Z,6.95
2023-01-15T07:56:59.363Z,6.97
2023-01-15T07:59:31.758Z,6.98
2023-01-15T08:02:00.804Z,7.01
2023-01-15T08:04:31.359Z,7.03
2023-01-15T08:07:03.162Z,7.06
2023-01-15T08:09:36.488Z,7.09
2023-01-15T08:12:37.142Z,7.12
2023-01-15T08:15:18.199Z,7.13
2023-01-15T08:17:47.888Z,7.13
2023-01-15T08:20:18.871Z,7.14
2023-01-15T08:22:54.213Z,7.14
2023-01-15T08:25:24.155Z,7.13
2023-01-15T08:27:52.678Z,7.13
2023-01-15T08:30:23.351Z,7.12
2023-01-15T08:32:55.250Z,7.13
2023-01-15T08:35:23.955Z,7.12
2023-01-15T08:37:59.268Z,7.12
2023-01-15T08:40:32.642Z,7.11
2023-01-15T08:43:08.129Z,7.11
2023-01-15T08:45:36.761Z,7.11
2023-01-15T08:48:06.732Z,7.11
2023-01-15T08:50:36.875Z,7.11
2023-01-15T08:53:10.543Z,7.11
2023-01-15T08:55:39.821Z,7.13
2023-01-15T08:58:23.260Z,7.15
2023-01-15T09:01:00.385Z,7.18
2023-01-15T09:03:29.417Z,7.20
2023-01-15T09:06:03.782Z,7.22
2023-01-15T09:08:35.137Z,7.25
2023-01-15T09:11:06.824Z,7.28
2023-01-15T09:13:37.119Z,7.31
2023-01-15T09:16:08.151Z,7.34
2023-01-15T09:18:41.514Z,7.37
2023-01-15T09:21:18.213Z,7.40
2023-01-15T09:23:49.725Z,7.43
2023-01-15T09:26:44.079Z,7.45
2023-01-15T09:29:12.489Z,7.49
2023-01-15T09:31:41.924Z,7.52
2023-01-15T09:34:10.933Z,7.54
2023-01-15T09:36:41.304Z,7.57
2023-01-15T09:39:14.024Z,7.58
2023-01-15T09:42:19.274Z,7.62
2023-01-15T09:45:16.930Z,7.66
2023-01-15T09:48:03.400Z,7.70
2023-01-15T09:50:47.877Z,7.75
2023-01-15T09:53:35.602Z,7.78
2023-01-15T09:56:11.333Z,7.82
2023-01-15T09:58:46.852Z,7.86
2023-01-15T10:01:24.575Z,7.89
2023-01-15T10:03:58.521Z,7.93
2023-01-15T10:06:33.062Z,7.99
2023-01-15T10:09:05.767Z,8.02
2023-01-15T10:11:57.286Z,8.07
2023-01-15T10:14:39.990Z,8.13
2023-01-15T10:17:25.514Z,8.19
2023-01-15T10:20:09.790Z,8.24
2023-01-15T10:22:46.680Z,8.29
2023-01-15T10:25:18.535Z,8.33
2023-01-15T10:28:02.075Z,8.37
2023-01-15T10:30:38.958Z,8.41
2023-01-15T10:33:18.508Z,8.44
2023-01-15T10:35:55.244Z,8.49
2023-01-15T10:38:29.171Z,8.52
2023-01-15T10:41:24.318Z,8.56
2023-01-15T10:44:02.906Z,8.61
2023-01-15T10:46:52.346Z,8.65
2023-01-15T10:49:29.513Z,8.70
2023-01-15T10:52:01.672Z,8.75
2023-01-15T10:54:41.430Z,8.80
2023-01-15T10:57:20.735Z,8.84
2023-01-15T10:59:56.542Z,8.89
2023-01-15T11:02:32.428Z,8.95
2023-01-15T11:05:22.405Z,8.97
2023-01-15T11:08:34.404Z,9.02
2023-01-15T11:11:00.880Z,9.06
2023-01-15T11:13:48.755Z,9.08
2023-01-15T11:16:47.374Z,9.10
2023-01-15T11:19:50.849Z,9.09
2023-01-15T11:22:25.118Z,9.10
2023-01-15T11:24:59.017Z,9.11
2023-01-15T11:27:34.384Z,9.12
2023-01-15T11:30:09.385Z,9.12
2023-01-15T11:32:42.360Z,9.13
2023-01-15T11:35:18.194Z,9.13
2023-01-15T11:37:48.393Z,9.15
2023-01-15T11:40:24.807Z,9.18
2023-01-15T11:43:10.902Z,9.22
2023-01-15T11:46:06.414Z,9.24
2023-01-15T11:49:05.164Z,9.25
2023-01-15T11:51:44.629Z,9.27
2023-01-15T11:54:15.189Z,9.29
2023-01-15T11:56:47.875Z,9.30
2023-01-15T11:59:21.629Z,9.30
2023-01-15T12:01:55.230Z,9.32
2023-01-15T12:04:35.473Z,9.32
2023-01-15T12:07:05.253Z,9.31
2023-01-15T12:09:46.255Z,9.31
2023-01-15T12:12:22.168Z,9.29
2023-01-15T12:15:04.228Z,9.28
2023-01-15T12:17:53.687Z,9.26
2023-01-15T12:20:27.707Z,9.25
2023-01-15T12:23:07.751Z,9.22
2023-01-15T12:25:47.322Z,9.21
2023-01-15T12:28:24.620Z,9.20
2023-01-15T12:30:59.557Z,9.18
2023-01-15T12:33:41.438Z,9.20
2023-01-15T12:36:14.903Z,9.18
2023-01-15T12:38:59.929Z,9.21
2023-01-15T12:41:52.790Z,9.21
2023-01-15T12:44:45.214Z,9.21
2023-01-15T12:47:17.510Z,9.22
2023-01-15T12:49:48.720Z,9.23
2023-01-15T12:52:25.097Z,9.23
2023-01-15T12:55:00.523Z,9.23
2023-01-15T12:57:34.636Z,9.24
2023-01-15T13:00:06.123Z,9.24
2023-01-15T13:02:39.851Z,9.23
2023-01-15T13:05:18.505Z,9.23
2023-01-15T13:07:52.137Z,9.23
2023-01-15T13:10:28.019Z,9.22
2023-01-15T13:12:59.831Z,9.21
2023-01-15T13:15:36.503Z,9.21
2023-01-15T13:18:31.094Z,9.21
2023-01-15T13:21:02.300Z,9.21
2023-01-15T13:23:46.758Z,9.20
2023-01-15T13:26:22.230Z,9.21
2023-01-15T13:29:00.251Z,9.20
2023-01-15T13:31:50.019Z,9.19
2023-01-15T13:34:22.297Z,9.17
2023-01-15T13:36:54.668Z,9.16
2023-01-15T13:39:27.137Z,9.15
2023-01-15T13:42:13.529Z,9.11
2023-01-15T13:44:51.243Z,9.05
2023-01-15T13:47:24.470Z,8.94
2023-01-15T13:49:59.010Z,8.87
2023-01-15T13:52:30.996Z,8.80
2023-01-15T13:55:03.609Z,8.76
2023-01-15T13:57:37.393Z,8.73
2023-01-15T14:00:06.930Z,8.71
2023-01-15T14:02:45.102Z,8.65
2023-01-15T14:05:17.045Z,8.59
2023-01-15T14:07:47.144Z,8.55
2023-01-15T14:10:31.018Z,8.50
2023-01-15T14:13:13.578Z,8.48
2023-01-15T14:15:55.710Z,8.44
2023-01-15T14:18:41.780Z,8.42
2023-01-15T14:21:19.912Z,8.41
2023-01-15T14:24:05.102Z,8.40
2023-01-15T14:26:44.135Z,8.39
2023-01-15T14:29:32.374Z,8.35
2023-01-15T14:32:04.658Z,8.29
2023-01-15T14:34:40.117Z,8.23
2023-01-15T14:37:22.355Z,8.17
2023-01-15T14:39:58.862Z,8.14
2023-01-15T14:42:49.094Z,8.11
2023-01-15T14:45:21.112Z,8.10
2023-01-15T14:47:51.068Z,8.07
2023-01-15T14:50:35.116Z,8.07
2023-01-15T14:53:06.813Z,8.09
2023-01-15T14:56:08.103Z,8.10
2023-01-15T14:59:00.041Z,8.13
2023-01-15T15:01:55.326Z,8.11
2023-01-15T15:04:32.739Z,8.07
2023-01-15T15:07:03.137Z,8.03
2023-01-15T15:09:36.935Z,7.98
2023-01-15T15:12:27.642Z,7.95
2023-01-15T15:15:02.228Z,7.88
2023-01-15T15:17:46.937Z,7.82
2023-01-15T15:20:24.279Z,7.78
2023-01-15T15:22:56.020Z,7.75
2023-01-15T15:25:27.037Z,7.73
2023-01-15T15:28:15.706Z,7.70
2023-01-15T15:30:46.360Z,7.66
2023-01-15T15:33:22.964Z,7.58
2023-01-15T15:35:52.378Z,7.50
2023-01-15T15:38:23.103Z,7.42
2023-01-15T15:40:57.264Z,7.31
2023-01-15T15:43:45.768Z,7.23
2023-01-15T15:46:46.461Z,7.13
2023-01-15T15:49:17.376Z,7.03
2023-01-15T15:51:49.954Z,6.95
2023-01-15T15:54:20.319Z,6.90
2023-01-15T15:56:59.595Z,6.85
2023-01-15T15:59:30.476Z,6.81
2023-01-15T16:02:10.653Z,6.76
2023-01-15T16:04:45.534Z,6.70
2023-01-15T16:07:14.697Z,6.65
2023-01-15T16:09:48.867Z,6.59
2023-01-15T16:12:22.624Z,6.56
2023-01-15T16:14:55.026Z,6.53
2023-01-15T16:17:31.516Z,6.48
2023-01-15T16:20:15.981Z,6.44
2023-01-15T16:22:49.893Z,6.39
2023-01-15T16:25:27.096Z,6.35
2023-01-15T16:27:56.024Z,6.32
2023-01-15T16:30:26.011Z,6.29
2023-01-15T16:32:57.902Z,6.26
2023-01-15T16:35:37.201Z,6.24
2023-01-15T16:38:11.330Z,6.21
2023-01-15T16:40:42.480Z,6.19
2023-01-15T16:43:12.283Z,6.19
2023-01-15T16:45:43.519Z,6.18
2023-01-15T16:48:21.112Z,6.16
2023-01-15T16:50:54.229Z,6.14
2023-01-15T16:53:42.300Z,6.12
2023-01-15T16:56:26.700Z,6.10
2023-01-15T16:58:56.618Z,6.08
2023-01-15T17:01:27.183Z,6.06
2023-01-15T17:04:00.090Z,6.05
2023-01-15T17:06:37.924Z,6.03
2023-01-15T17:09:06.764Z,5.99
2023-01-15T17:11:38.207Z,5.97
2023-01-15T17:14:11.351Z,5.94
2023-01-15T17:16:40.466Z,5.92
2023-01-15T17:19:13.121Z,5.91
2023-01-15T17:21:47.743Z,5.88
2023-01-15T17:24:16.095Z,5.85
2023-01-15T17:26:45.965Z,5.83
2023-01-15T17:29:20.882Z,5.80
2023-01-15T17:31:51.559Z,5.79
2023-01-15T17:34:27.411Z,5.82
2023-01-15T17:37:02.749Z,5.82
2023-01-15T17:39:31.809Z,5.84
2023-01-15T17:42:00.197Z,5.86
2023-01-15T17:44:31.757Z,5.88
2023-01-15T17:47:00.459Z,5.89
2023-01-15T17:49:30.293Z,5.88
2023-01-15T17:52:11.615Z,5.86
2023-01-15T17:54:57.479Z,5.88
2023-01-15T17:57:58.922Z,5.88
2023-01-15T18:00:47.271Z,5.88
2023-01-15T18:03:36.206Z,5.89
2023-01-15T18:06:05.484Z,5.86
2023-01-15T18:08:44.482Z,5.87
2023-01-15T18:11:13.642Z,5.87
2023-01-15T18:13:46.972Z,5.86
2023-01-15T18:16:16.497Z,5.85
2023-01-15T18:18:48.132Z,5.83
2023-01-15T18:21:17.345Z,5.82
2023-01-15T18:23:48.803Z,5.80
2023-01-15T18:26:27.873Z,5.77
2023-01-15T18:28:57.071Z,5.76
2023-01-15T18:31:29.441Z,5.75
2023-01-15T18:33:59.714Z,5.73
2023-01-15T18:36:32.583Z,5.75
2023-01-15T18:39:15.535Z,5.75
2023-01-15T18:42:06.238Z,5.74
2023-01-15T18:44:56.110Z,5.73
2023-01-15T18:47:28.498Z,5.72
2023-01-15T18:49:58.188Z,5.69
2023-01-15T18:52:44.583Z,5.69
2023-01-15T18:55:17.080Z,5.67
2023-01-15T18:57:50.556Z,5.66
2023-01-15T19:00:20.161Z,5.66
2023-01-15T19:02:51.431Z,5.67
2023-01-15T19:05:22.876Z,5.68
2023-01-15T19:08:05.292Z,5.67
2023-01-15T19:10:36.628Z,5.66
2023-01-15T19:13:08.769Z,5.65
2023-01-15T19:15:54.199Z,5.64
2023-01-15T19:18:39.830Z,5.64
2023-01-15T19:21:12.093Z,5.63
2023-01-15T19:23:55.163Z,5.63
2023-01-15T19:26:31.150Z,5.66
2023-01-15T19:28:59.750Z,5.68
2023-01-15T19:31:53.112Z,5.66
2023-01-15T19:34:34.135Z,5.63
2023-01-15T19:37:04.972Z,5.61
2023-01-15T19:39:38.273Z,5.61
2023-01-15T19:42:39.789Z,5.59
2023-01-15T19:45:26.436Z,5.59
2023-01-15T19:48:13.835Z,5.56
2023-01-15T19:50:47.193Z,5.57
2023-01-15T19:53:16.209Z,5.57
2023-01-15T19:55:47.554Z,5.57
2023-01-15T19:58:22.034Z,5.59
2023-01-15T20:00:53.401Z,5.61
2023-01-15T20:03:26.373Z,5.60
2023-01-15T20:05:56.130Z,5.60
2023-01-15T20:08:40.692Z,5.61
2023-01-15T20:11:16.495Z,5.59
2023-01-15T20:13:53.138Z,5.58
2023-01-15T20:16:29.991Z,5.58
2023-01-15T20:18:58.812Z,5.57
2023-01-15T20:21:31.034Z,5.58
2023-01-15T20:24:01.328Z,5.58
2023-01-15T20:26:33.225Z,5.57
2023-01-15T20:29:06.224Z,5.57
2023-01-15T20:31:38.139Z,5.58
2023-01-15T20:34:07.658Z,5.58
2023-01-15T20:36:41.091Z,5.58
2023-01-15T20:39:11.519Z,5.58
2023-01-15T20:42:03.644Z,5.59
2023-01-15T20:44:57.560Z,5.61
2023-01-15T20:47:44.440Z,5.63
2023-01-15T20:50:15.847Z,5.65
2023-01-15T20:52:49.038Z,5.67
2023-01-15T20:55:18.325Z,5.68
2023-01-15T20:57:47.119Z,5.70
2023-01-15T21:00:21.510Z,5.75
2023-01-15T21:02:55.174Z,5.79
2023-01-15T21:05:23.596Z,5.83
2023-01-15T21:07:52.094Z,5.89
2023-01-15T21:10:23.199Z,5.92
2023-01-15T21:12:51.734Z,5.96
2023-01-15T21:15:22.123Z,5.99
2023-01-15T21:17:50.865Z,6.00
2023-01-15T21:20:25.048Z,6.01
2023-01-15T21:22:54.001Z,6.00
2023-01-15T21:25:23.522Z,5.99
2023-01-15T21:27:53.635Z,5.98
2023-01-15T21:30:25.818Z,5.97
2023-01-15T21:32:59.094Z,5.95
2023-01-15T21:35:27.663Z,5.95
2023-01-15T21:37:55.994Z,5.92
2023-01-15T21:40:24.215Z,5.90
2023-01-15T21:43:11.316Z,5.85
2023-01-15T21:45:45.380Z,5.82
2023-01-15T21:48:13.597Z,5.80
2023-01-15T21:50:46.918Z,5.79
2023-01-15T21:53:15.526Z,5.79
2023-01-15T21:55:55.536Z,5.77
2023-01-15T21:58:28.274Z,5.78
2023-01-15T22:00:59.785Z,5.79
2023-01-15T22:03:30.096Z,5.80
2023-01-15T22:06:05.080Z,5.82
2023-01-15T22:08:33.575Z,5.82
2023-01-15T22:11:09.604Z,5.80
2023-01-15T22:13:39.104Z,5.80
2023-01-15T22:16:09.374Z,5.79
2023-01-15T22:18:38.200Z,5.80
2023-01-15T22:21:07.476Z,5.80
2023-01-15T22:23:36.170Z,5.82
2023-01-15T22:26:05.309Z,5.83
2023-01-15T22:28:33.926Z,5.85
2023-01-15T22:31:06.559Z,5.86
2023-01-15T22:33:36.921Z,5.86
2023-01-15T22:36:06.564Z,5.86
2023-01-15T22:38:35.701Z,5.84
2023-01-15T22:41:04.207Z,5.82
2023-01-15T22:43:33.699Z,5.81
2023-01-15T22:46:13.467Z,5.81
2023-01-15T22:48:49.511Z,5.78
2023-01-15T22:51:18.779Z,5.75
2023-01-15T22:53:55.786Z,5.71
2023-01-15T22:56:26.875Z,5.67
2023-01-15T22:58:56.407Z,5.64
2023-01-15T23:01:28.059Z,5.64
2023-01-15T23:03:58.367Z,5.61
2023-01-15T23:06:28.930Z,5.61
2023-01-15T23:09:00.383Z,5.59
2023-01-15T23:11:31.277Z,5.58
2023-01-15T23:14:04.356Z,5.58
2023-01-15T23:16:33.102Z,5.58
2023-01-15T23:19:07.326Z,5.56
2023-01-15T23:21:37.869Z,5.54
2023-01-15T23:24:11.664Z,5.54
2023-01-15T23:26:49.290Z,5.53
2023-01-15T23:29:18.115Z,5.53
2023-01-15T23:31:46.867Z,5.54
2023-01-15T23:34:17.983Z,5.56
2023-01-15T23:36:46.620Z,5.57
2023-01-15T23:39:15.641Z,5.56
2023-01-15T23:42:03.490Z,5.55
2023-01-15T23:44:49.434Z,5.55
2023-01-15T23:47:18.537Z,5.54
2023-01-15T23:49:49.331Z,5.53
2023-01-15T23:52:18.525Z,5.51
2023-01-15T23:54:47.680Z,5.49
2023-01-15T23:57:18.430Z,5.50
2023-01-15T23:59:47.901Z,5.50
